ADDS METAR Data INFO
IDs: Format: Raw Decoded Include TAF

Data at: 1622 UTC 25 Apr 2018

KDKR 251615Z AUTO 22007KT 10SM CLR 25/17 A3009 RMK AO2
KDKR 251555Z AUTO 23008KT 10SM CLR 25/17 A3009 RMK AO2
KDKR 251535Z AUTO 20007KT 10SM CLR 25/17 A3009 RMK AO2
KDKR 251515Z AUTO 22004KT 10SM CLR 24/17 A3009 RMK AO2
KDKR 251455Z AUTO 21003KT 10SM CLR 23/17 A3010 RMK AO2
KDKR 251435Z AUTO 19003KT 10SM CLR 22/17 A3010 RMK AO2
KDKR 251415Z AUTO 19003KT 10SM CLR 21/17 A3010 RMK AO2
KDKR 251355Z AUTO 21003KT 10SM CLR 20/16 A3010 RMK AO2
KDKR 251335Z AUTO 00000KT 10SM CLR 19/15 A3010 RMK AO2
KDKR 251315Z AUTO 00000KT 10SM CLR 18/14 A3010 RMK AO2
KDKR 251255Z AUTO 00000KT 10SM CLR 16/13 A3009 RMK AO2
KDKR 251235Z AUTO 10SM CLR 14/13 A3009 RMK AO2
KDKR 251215Z AUTO 00000KT 10SM CLR 14/12 A3009 RMK AO2
KDKR 251155Z AUTO 05003KT 10SM CLR 14/12 A3008 RMK AO2
KDKR 251135Z AUTO 00000KT 7SM CLR 14/12 A3008 RMK AO2
KDKR 251115Z AUTO 00000KT 10SM CLR 14/12 A3008 RMK AO2
KDKR 251055Z AUTO 00000KT 10SM CLR 15/12 A3007 RMK AO2
KDKR 251035Z AUTO 18004KT 10SM CLR 18/12 A3006 RMK AO2
KDKR 251015Z AUTO 14005KT 10SM CLR 17/12 A3004 RMK AO2
KDKR 250955Z AUTO 13003KT 10SM CLR 14/13 A3006 RMK AO2
KDKR 250935Z AUTO 00000KT 10SM CLR 14/13 A3007 RMK AO2
KDKR 250915Z AUTO 00000KT 5SM BR CLR 13/13 A3009 RMK AO2
KDKR 250855Z AUTO 10SM CLR 14/13 A3008 RMK AO2
KDKR 250835Z AUTO 10SM CLR 14/13 A3008 RMK AO2
KDKR 250815Z AUTO 00000KT 5SM BR CLR 14/13 A3008 RMK AO2
KDKR 250755Z AUTO 04003KT 10SM CLR 13/13 A3008 RMK AO2
KDKR 250735Z AUTO 04003KT 10SM CLR 13/13 A3009 RMK AO2
KDKR 250715Z AUTO 00000KT 10SM CLR 13/12 A3010 RMK AO2
KDKR 250655Z AUTO 00000KT 9SM CLR 13/13 A3011 RMK AO2
KDKR 250635Z AUTO 00000KT 10SM CLR 14/13 A3011 RMK AO2
KDKR 250615Z AUTO 00000KT 10SM CLR 14/13 A3011 RMK AO2
KDKR 250555Z AUTO 00000KT 10SM CLR 14/13 A3010 RMK AO2
KDKR 250535Z AUTO 04003KT 10SM CLR 14/13 A3010 RMK AO2
KDKR 250515Z AUTO 00000KT 10SM CLR 14/13 A3010 RMK AO2
KDKR 250455Z AUTO 00000KT 10SM CLR 14/14 A3010 RMK AO2
KDKR 250435Z AUTO 00000KT 10SM CLR 15/14 A3010 RMK AO2
KDKR 250415Z AUTO 00000KT 10SM CLR 15/14 A3010 RMK AO2
KDKR 250355Z AUTO 00000KT 10SM CLR 15/14 A3009 RMK AO2
KDKR 250335Z AUTO 00000KT 10SM CLR 16/15 A3008 RMK AO2
KDKR 250315Z AUTO 00000KT 10SM CLR 17/15 A3007 RMK AO2
KDKR 250255Z AUTO 04003KT 10SM CLR 17/15 A3006 RMK AO2
KDKR 250235Z AUTO 00000KT 9SM CLR 17/15 A3006 RMK AO2
KDKR 250215Z AUTO 00000KT 10SM CLR 18/15 A3005 RMK AO2
KDKR 250155Z AUTO 00000KT 10SM CLR 19/16 A3004 RMK AO2
KDKR 250135Z AUTO 00000KT 10SM CLR 20/16 A3004 RMK AO2
KDKR 250115Z AUTO 04003KT 10SM CLR 20/17 A3003 RMK AO2
KDKR 250055Z AUTO 10SM CLR 21/17 A3003 RMK AO2
KDKR 250035Z AUTO 00000KT 10SM CLR 22/17 A3003 RMK AO2
KDKR 250015Z AUTO 00000KT 10SM CLR 23/18 A3003 RMK AO2
KDKR 242355Z AUTO 00000KT 10SM CLR 25/15 A3002 RMK AO2
KDKR 242335Z AUTO 31003KT 10SM CLR 25/14 A3003 RMK AO2
KDKR 242315Z AUTO 31003KT 10SM CLR 26/15 A3003 RMK AO2
KDKR 242255Z AUTO 00000KT 10SM CLR 26/14 A3003 RMK AO2
KDKR 242235Z AUTO 30003KT 10SM CLR 27/14 A3003 RMK AO2
KDKR 242215Z AUTO 00000KT 10SM CLR 27/13 A3003 RMK AO2
KDKR 242155Z AUTO 00000KT 10SM CLR 27/13 A3003 RMK AO2
KDKR 242135Z AUTO 33005KT 10SM CLR 27/14 A3004 RMK AO2
KDKR 242115Z AUTO 31004KT 10SM CLR 27/14 A3005 RMK AO2
KDKR 242055Z AUTO 00000KT 10SM CLR 27/14 A3005 RMK AO2
KDKR 242035Z AUTO 35003KT 10SM CLR 27/13 A3005 RMK AO2
KDKR 242015Z AUTO 00000KT 10SM CLR 26/13 A3006 RMK AO2
KDKR 241955Z AUTO 03003KT 10SM CLR 26/13 A3007 RMK AO2
KDKR 241935Z AUTO 30003KT 10SM CLR 26/13 A3008 RMK AO2
KDKR 241915Z AUTO 34004KT 10SM CLR 26/13 A3008 RMK AO2
KDKR 241855Z AUTO 35004KT 10SM CLR 25/12 A3009 RMK AO2
KDKR 241835Z AUTO 04004KT 10SM CLR 25/13 A3010 RMK AO2
KDKR 241815Z AUTO 35003KT 10SM CLR 25/13 A3011 RMK AO2
KDKR 241755Z AUTO 34006KT 10SM CLR 24/13 A3012 RMK AO2
KDKR 241735Z AUTO 31007KT 10SM CLR 25/13 A3012 RMK AO2
KDKR 241715Z AUTO 01006KT 330V040 10SM CLR 24/13 A3013 RMK AO2
KDKR 241655Z AUTO 31007KT 10SM CLR 23/14 A3013 RMK AO2
KDKR 241635Z AUTO 29005KT 10SM CLR 23/14 A3014 RMK AO2
KDKR 241615Z AUTO 33004KT 10SM CLR 23/14 A3015 RMK AO2
KDKR 241555Z AUTO 30004KT 10SM CLR 22/15 A3015 RMK AO2
KDKR 241535Z AUTO 33005KT 10SM CLR 22/15 A3014 RMK AO2
KDKR 241515Z AUTO 33003KT 10SM CLR 21/15 A3015 RMK AO2
KDKR 241455Z AUTO 29004KT 10SM CLR 20/15 A3014 RMK AO2
KDKR 241435Z AUTO 28003KT 10SM CLR 19/14 A3014 RMK AO2
KDKR 241415Z AUTO 30005KT 10SM CLR 18/14 A3013 RMK AO2
KDKR 241355Z AUTO 29004KT 10SM CLR 17/14 A3013 RMK AO2
KDKR 241335Z AUTO 28003KT 10SM CLR 15/14 A3013 RMK AO2
KDKR 241315Z AUTO 00000KT 10SM CLR 14/14 A3012 RMK AO2
KDKR 241255Z AUTO 00000KT 9SM CLR 13/12 A3011 RMK AO2
KDKR 241235Z AUTO 00000KT 9SM CLR 11/10 A3011 RMK AO2
KDKR 241215Z AUTO 00000KT 10SM CLR 10/09 A3011 RMK AO2
KDKR 241155Z AUTO 00000KT 10SM CLR 10/09 A3010 RMK AO2
KDKR 241135Z AUTO 00000KT 10SM CLR 10/09 A3009 RMK AO2
KDKR 241115Z AUTO 00000KT 10SM CLR 10/09 A3008 RMK AO2
KDKR 241055Z AUTO 00000KT 10SM CLR 10/09 A3008 RMK AO2
KDKR 241035Z AUTO 00000KT 10SM CLR 10/09 A3007 RMK AO2
KDKR 241015Z AUTO 00000KT 10SM CLR 10/09 A3007 RMK AO2
KDKR 240955Z AUTO 00000KT 10SM CLR 10/09 A3007 RMK AO2
KDKR 240935Z AUTO 00000KT 9SM CLR 10/09 A3007 RMK AO2
KDKR 240915Z AUTO 00000KT 8SM FEW001 10/09 A3007 RMK AO2
KDKR 240855Z AUTO 00000KT 10SM CLR 10/09 A3006 RMK AO2
KDKR 240835Z AUTO 00000KT 10SM CLR 10/09 A3006 RMK AO2
KDKR 240815Z AUTO 00000KT 10SM CLR 10/09 A3005 RMK AO2
KDKR 240755Z AUTO 00000KT 10SM CLR 10/10 A3005 RMK AO2
KDKR 240735Z AUTO 00000KT 10SM CLR 10/10 A3005 RMK AO2
KDKR 240715Z AUTO 00000KT 10SM CLR 11/10 A3006 RMK AO2
KDKR 240655Z AUTO 00000KT 9SM CLR 11/10 A3007 RMK AO2
KDKR 240635Z AUTO 00000KT 10SM CLR 11/10 A3007 RMK AO2
KDKR 240615Z AUTO 00000KT 10SM CLR 11/10 A3007 RMK AO2
KDKR 240555Z AUTO 00000KT 10SM CLR 12/11 A3008 RMK AO2
KDKR 240535Z AUTO 00000KT 10SM CLR 12/11 A3008 RMK AO2
KDKR 240515Z AUTO 00000KT 10SM CLR 12/11 A3008 RMK AO2
KDKR 240455Z AUTO 00000KT 10SM CLR 13/12 A3008 RMK AO2
KDKR 240435Z AUTO 00000KT 10SM CLR 13/12 A3008 RMK AO2